sim
Sign-in with your pilot id or email,
or register
Callsign
Passwort

Schedule Details

Flight Number: DLH2024
Departure: Munich Airport (EDDM) at 20:30
Arrival: Dusseldorf International Airport (EDDL) at 21:40
Route: Lufthansa Passenger Schedule. Enter filed route here before submitting Pirep.

Weather Information
Getting current METAR information for EDDM 260820Z 27015KT 9999 SCT019 BKN028 08/05 Q1000 TEMPO 26015G25KT
Getting current METAR information for EDDL 260820Z 35009KT 8000 -RADZ SCT006 BKN008 BKN018 11/09 Q0996 TEMPO BKN020

Schedule Frequency

Route Map